sensor_id;sensor_type;location;lat;lon;timestamp;temperature;humidity
76967;DHT22;65904;52.278;20.972;2023-04-24T00:02:54;14.40;97.30
76967;DHT22;65904;52.278;20.972;2023-04-24T00:05:42;14.30;97.50
76967;DHT22;65904;52.278;20.972;2023-04-24T00:08:29;14.30;97.70
76967;DHT22;65904;52.278;20.972;2023-04-24T00:11:15;14.20;97.80
76967;DHT22;65904;52.278;20.972;2023-04-24T00:14:01;14.20;98.10
76967;DHT22;65904;52.278;20.972;2023-04-24T00:16:47;14.10;98.20
76967;DHT22;65904;52.278;20.972;2023-04-24T00:19:34;14.10;98.40
76967;DHT22;65904;52.278;20.972;2023-04-24T00:22:20;14.00;98.60
76967;DHT22;65904;52.278;20.972;2023-04-24T00:25:07;13.90;98.80
76967;DHT22;65904;52.278;20.972;2023-04-24T00:27:53;13.80;99.00
76967;DHT22;65904;52.278;20.972;2023-04-24T00:30:40;13.70;99.20
76967;DHT22;65904;52.278;20.972;2023-04-24T00:33:26;13.60;99.90
76967;DHT22;65904;52.278;20.972;2023-04-24T00:36:13;13.50;99.90
76967;DHT22;65904;52.278;20.972;2023-04-24T00:38:59;13.30;99.90
76967;DHT22;65904;52.278;20.972;2023-04-24T00:41:46;13.10;99.90
76967;DHT22;65904;52.278;20.972;2023-04-24T00:44:33;13.00;99.90
76967;DHT22;65904;52.278;20.972;2023-04-24T00:47:19;12.90;99.90
76967;DHT22;65904;52.278;20.972;2023-04-24T00:50:07;12.80;99.90
76967;DHT22;65904;52.278;20.972;2023-04-24T00:52:55;12.80;99.90
76967;DHT22;65904;52.278;20.972;2023-04-24T00:55:41;12.70;99.90
76967;DHT22;65904;52.278;20.972;2023-04-24T00:58:28;12.60;99.90
76967;DHT22;65904;52.278;20.972;2023-04-24T01:01:15;12.50;99.90
76967;DHT22;65904;52.278;20.972;2023-04-24T01:04:02;12.50;99.90
76967;DHT22;65904;52.278;20.972;2023-04-24T01:06:48;12.50;99.90
76967;DHT22;65904;52.278;20.972;2023-04-24T01:09:38;12.40;99.90
76967;DHT22;65904;52.278;20.972;2023-04-24T01:12:25;12.40;99.90
76967;DHT22;65904;52.278;20.972;2023-04-24T01:15:11;12.30;99.90
76967;DHT22;65904;52.278;20.972;2023-04-24T01:17:58;12.30;99.90
76967;DHT22;65904;52.278;20.972;2023-04-24T01:20:45;12.30;99.90
76967;DHT22;65904;52.278;20.972;2023-04-24T01:23:33;12.20;99.90
76967;DHT22;65904;52.278;20.972;2023-04-24T01:26:20;12.30;99.90
76967;DHT22;65904;52.278;20.972;2023-04-24T01:29:06;12.20;99.90
76967;DHT22;65904;52.278;20.972;2023-04-24T01:31:53;12.20;99.90
76967;DHT22;65904;52.278;20.972;2023-04-24T01:34:40;12.10;99.90
76967;DHT22;65904;52.278;20.972;2023-04-24T01:37:26;12.00;99.90
76967;DHT22;65904;52.278;20.972;2023-04-24T01:40:14;11.90;99.90
76967;DHT22;65904;52.278;20.972;2023-04-24T01:43:01;11.90;99.90
76967;DHT22;65904;52.278;20.972;2023-04-24T01:45:48;11.80;99.90
76967;DHT22;65904;52.278;20.972;2023-04-24T01:48:35;11.80;99.90
76967;DHT22;65904;52.278;20.972;2023-04-24T01:51:21;11.80;99.90
76967;DHT22;65904;52.278;20.972;2023-04-24T01:54:07;11.70;99.90
76967;DHT22;65904;52.278;20.972;2023-04-24T01:56:55;11.70;99.90
76967;DHT22;65904;52.278;20.972;2023-04-24T01:59:41;11.70;99.90
76967;DHT22;65904;52.278;20.972;2023-04-24T02:02:27;11.60;99.90
76967;DHT22;65904;52.278;20.972;2023-04-24T02:05:16;11.60;99.90
76967;DHT22;65904;52.278;20.972;2023-04-24T02:08:01;11.60;99.90
76967;DHT22;65904;52.278;20.972;2023-04-24T02:10:47;11.50;99.90
76967;DHT22;65904;52.278;20.972;2023-04-24T02:13:35;11.50;99.90
76967;DHT22;65904;52.278;20.972;2023-04-24T02:16:22;11.50;99.90
76967;DHT22;65904;52.278;20.972;2023-04-24T02:19:08;11.50;99.90
76967;DHT22;65904;52.278;20.972;2023-04-24T02:21:55;11.60;99.90
76967;DHT22;65904;52.278;20.972;2023-04-24T02:24:41;11.60;99.90
76967;DHT22;65904;52.278;20.972;2023-04-24T02:27:28;11.60;99.90
76967;DHT22;65904;52.278;20.972;2023-04-24T02:30:15;11.50;99.90
76967;DHT22;65904;52.278;20.972;2023-04-24T02:33:01;11.40;99.90
76967;DHT22;65904;52.278;20.972;2023-04-24T02:35:48;11.30;99.90
76967;DHT22;65904;52.278;20.972;2023-04-24T02:38:34;11.20;99.90
76967;DHT22;65904;52.278;20.972;2023-04-24T02:41:20;11.20;99.90
76967;DHT22;65904;52.278;20.972;2023-04-24T02:44:07;11.10;99.90
76967;DHT22;65904;52.278;20.972;2023-04-24T02:46:54;11.10;99.90
76967;DHT22;65904;52.278;20.972;2023-04-24T02:49:41;11.00;99.90
76967;DHT22;65904;52.278;20.972;2023-04-24T02:52:27;10.90;99.90
76967;DHT22;65904;52.278;20.972;2023-04-24T02:55:13;10.90;99.90
76967;DHT22;65904;52.278;20.972;2023-04-24T02:57:59;10.90;99.90
76967;DHT22;65904;52.278;20.972;2023-04-24T03:00:46;10.90;99.90
76967;DHT22;65904;52.278;20.972;2023-04-24T03:03:33;10.80;99.90
76967;DHT22;65904;52.278;20.972;2023-04-24T03:06:19;10.80;99.90
76967;DHT22;65904;52.278;20.972;2023-04-24T03:09:06;10.80;99.90
76967;DHT22;65904;52.278;20.972;2023-04-24T03:11:53;10.80;99.90
76967;DHT22;65904;52.278;20.972;2023-04-24T03:14:40;10.70;99.90
76967;DHT22;65904;52.278;20.972;2023-04-24T03:17:26;10.70;99.90
76967;DHT22;65904;52.278;20.972;2023-04-24T03:20:13;10.70;99.90
76967;DHT22;65904;52.278;20.972;2023-04-24T03:23:00;10.70;99.90
76967;DHT22;65904;52.278;20.972;2023-04-24T03:25:46;10.80;99.90
76967;DHT22;65904;52.278;20.972;2023-04-24T03:28:34;10.80;99.90
76967;DHT22;65904;52.278;20.972;2023-04-24T03:31:22;10.80;99.90
76967;DHT22;65904;52.278;20.972;2023-04-24T03:34:08;10.90;99.90
76967;DHT22;65904;52.278;20.972;2023-04-24T03:36:57;11.00;99.90
76967;DHT22;65904;52.278;20.972;2023-04-24T03:39:44;11.00;99.90
76967;DHT22;65904;52.278;20.972;2023-04-24T03:42:31;11.10;99.90
76967;DHT22;65904;52.278;20.972;2023-04-24T03:45:18;11.20;99.90
76967;DHT22;65904;52.278;20.972;2023-04-24T03:48:07;11.30;99.90
76967;DHT22;65904;52.278;20.972;2023-04-24T03:50:53;11.40;99.90
76967;DHT22;65904;52.278;20.972;2023-04-24T03:53:40;11.50;99.90
76967;DHT22;65904;52.278;20.972;2023-04-24T03:56:28;11.70;99.90
76967;DHT22;65904;52.278;20.972;2023-04-24T03:59:14;11.70;99.90
76967;DHT22;65904;52.278;20.972;2023-04-24T04:02:05;11.80;99.90
76967;DHT22;65904;52.278;20.972;2023-04-24T04:04:52;11.90;99.90
76967;DHT22;65904;52.278;20.972;2023-04-24T04:07:38;12.00;99.90
76967;DHT22;65904;52.278;20.972;2023-04-24T04:10:26;12.20;99.90
76967;DHT22;65904;52.278;20.972;2023-04-24T04:13:12;12.40;99.90
76967;DHT22;65904;52.278;20.972;2023-04-24T04:15:59;12.50;99.90
76967;DHT22;65904;52.278;20.972;2023-04-24T04:18:46;12.60;99.90
76967;DHT22;65904;52.278;20.972;2023-04-24T04:21:32;12.80;99.90
76967;DHT22;65904;52.278;20.972;2023-04-24T04:24:30;12.90;99.90
76967;DHT22;65904;52.278;20.972;2023-04-24T04:27:19;13.00;99.90
76967;DHT22;65904;52.278;20.972;2023-04-24T04:30:28;13.10;99.90
76967;DHT22;65904;52.278;20.972;2023-04-24T04:33:21;13.20;99.90
76967;DHT22;65904;52.278;20.972;2023-04-24T04:36:07;13.30;99.90
76967;DHT22;65904;52.278;20.972;2023-04-24T04:38:57;13.20;99.90
76967;DHT22;65904;52.278;20.972;2023-04-24T04:42:02;13.20;99.90
76967;DHT22;65904;52.278;20.972;2023-04-24T04:44:56;13.20;99.90
76967;DHT22;65904;52.278;20.972;2023-04-24T04:47:51;13.20;99.90
76967;DHT22;65904;52.278;20.972;2023-04-24T04:50:37;13.30;99.90
76967;DHT22;65904;52.278;20.972;2023-04-24T04:53:26;13.50;99.90
76967;DHT22;65904;52.278;20.972;2023-04-24T04:56:12;13.50;99.90
76967;DHT22;65904;52.278;20.972;2023-04-24T04:59:00;13.70;99.90
76967;DHT22;65904;52.278;20.972;2023-04-24T05:01:48;13.90;99.90
76967;DHT22;65904;52.278;20.972;2023-04-24T05:04:35;14.10;99.90
76967;DHT22;65904;52.278;20.972;2023-04-24T05:07:21;14.30;99.90
76967;DHT22;65904;52.278;20.972;2023-04-24T05:10:10;14.50;99.90
76967;DHT22;65904;52.278;20.972;2023-04-24T05:12:57;14.70;99.90
76967;DHT22;65904;52.278;20.972;2023-04-24T05:15:44;14.90;99.90
76967;DHT22;65904;52.278;20.972;2023-04-24T05:18:32;15.20;99.50
76967;DHT22;65904;52.278;20.972;2023-04-24T05:21:18;15.30;98.50
76967;DHT22;65904;52.278;20.972;2023-04-24T05:24:08;15.40;98.30
76967;DHT22;65904;52.278;20.972;2023-04-24T05:27:09;15.50;99.00
76967;DHT22;65904;52.278;20.972;2023-04-24T05:29:59;15.70;98.50
76967;DHT22;65904;52.278;20.972;2023-04-24T05:32:46;15.80;97.40
76967;DHT22;65904;52.278;20.972;2023-04-24T05:35:33;15.90;97.30
76967;DHT22;65904;52.278;20.972;2023-04-24T05:38:20;16.00;97.70
76967;DHT22;65904;52.278;20.972;2023-04-24T05:41:06;16.20;96.40
76967;DHT22;65904;52.278;20.972;2023-04-24T05:43:52;16.30;96.70
76967;DHT22;65904;52.278;20.972;2023-04-24T05:46:39;16.40;95.50
76967;DHT22;65904;52.278;20.972;2023-04-24T05:49:28;16.50;96.10
76967;DHT22;65904;52.278;20.972;2023-04-24T05:52:16;16.70;96.40
76967;DHT22;65904;52.278;20.972;2023-04-24T05:55:02;16.80;98.00
76967;DHT22;65904;52.278;20.972;2023-04-24T05:57:51;16.80;97.90
76967;DHT22;65904;52.278;20.972;2023-04-24T06:00:38;16.80;98.30
76967;DHT22;65904;52.278;20.972;2023-04-24T06:03:27;16.80;98.90
76967;DHT22;65904;52.278;20.972;2023-04-24T06:06:13;16.80;99.50
76967;DHT22;65904;52.278;20.972;2023-04-24T06:09:02;16.70;99.90
76967;DHT22;65904;52.278;20.972;2023-04-24T06:11:49;16.60;99.90
76967;DHT22;65904;52.278;20.972;2023-04-24T06:14:38;16.50;99.90
76967;DHT22;65904;52.278;20.972;2023-04-24T06:17:45;16.50;99.90
76967;DHT22;65904;52.278;20.972;2023-04-24T06:20:33;16.50;99.90
76967;DHT22;65904;52.278;20.972;2023-04-24T06:23:21;16.50;99.90
76967;DHT22;65904;52.278;20.972;2023-04-24T06:26:08;16.60;99.90
76967;DHT22;65904;52.278;20.972;2023-04-24T06:28:54;16.70;99.90
76967;DHT22;65904;52.278;20.972;2023-04-24T06:31:41;16.80;99.90
76967;DHT22;65904;52.278;20.972;2023-04-24T06:34:27;17.00;99.90
76967;DHT22;65904;52.278;20.972;2023-04-24T06:37:12;17.30;99.90
76967;DHT22;65904;52.278;20.972;2023-04-24T06:40:01;17.40;99.00
76967;DHT22;65904;52.278;20.972;2023-04-24T06:42:48;17.50;98.60
76967;DHT22;65904;52.278;20.972;2023-04-24T06:45:34;17.60;98.50
76967;DHT22;65904;52.278;20.972;2023-04-24T06:48:20;17.60;99.50
76967;DHT22;65904;52.278;20.972;2023-04-24T06:51:06;17.70;98.10
76967;DHT22;65904;52.278;20.972;2023-04-24T06:53:53;17.70;97.90
76967;DHT22;65904;52.278;20.972;2023-04-24T06:56:40;17.80;97.40
76967;DHT22;65904;52.278;20.972;2023-04-24T06:59:28;18.00;97.80
76967;DHT22;65904;52.278;20.972;2023-04-24T07:02:14;18.00;98.10
76967;DHT22;65904;52.278;20.972;2023-04-24T07:05:00;17.90;98.10
76967;DHT22;65904;52.278;20.972;2023-04-24T07:07:47;18.10;98.90
76967;DHT22;65904;52.278;20.972;2023-04-24T07:10:34;18.10;98.30
76967;DHT22;65904;52.278;20.972;2023-04-24T07:13:21;18.20;98.70
76967;DHT22;65904;52.278;20.972;2023-04-24T07:16:08;18.40;98.40
76967;DHT22;65904;52.278;20.972;2023-04-24T07:18:55;18.60;98.00
76967;DHT22;65904;52.278;20.972;2023-04-24T07:21:41;18.80;98.00
76967;DHT22;65904;52.278;20.972;2023-04-24T07:24:28;19.10;97.90
76967;DHT22;65904;52.278;20.972;2023-04-24T07:27:14;19.30;96.60
76967;DHT22;65904;52.278;20.972;2023-04-24T07:30:00;19.50;95.70
76967;DHT22;65904;52.278;20.972;2023-04-24T07:32:48;19.60;94.70
76967;DHT22;65904;52.278;20.972;2023-04-24T07:35:34;19.70;93.40
76967;DHT22;65904;52.278;20.972;2023-04-24T07:38:20;19.80;91.70
76967;DHT22;65904;52.278;20.972;2023-04-24T07:41:07;19.90;92.60
76967;DHT22;65904;52.278;20.972;2023-04-24T07:43:53;20.00;92.20
76967;DHT22;65904;52.278;20.972;2023-04-24T07:46:40;20.10;90.80
76967;DHT22;65904;52.278;20.972;2023-04-24T07:49:28;20.30;90.80
76967;DHT22;65904;52.278;20.972;2023-04-24T07:52:14;20.40;88.90
76967;DHT22;65904;52.278;20.972;2023-04-24T07:55:00;20.50;91.20
76967;DHT22;65904;52.278;20.972;2023-04-24T07:57:47;20.70;92.10
76967;DHT22;65904;52.278;20.972;2023-04-24T08:00:33;20.80;91.60
76967;DHT22;65904;52.278;20.972;2023-04-24T08:03:19;21.00;92.10
76967;DHT22;65904;52.278;20.972;2023-04-24T08:06:07;21.10;90.90
76967;DHT22;65904;52.278;20.972;2023-04-24T08:08:53;20.90;87.10
76967;DHT22;65904;52.278;20.972;2023-04-24T08:11:39;20.80;88.30
76967;DHT22;65904;52.278;20.972;2023-04-24T08:14:25;20.40;88.70
76967;DHT22;65904;52.278;20.972;2023-04-24T08:17:11;20.20;90.80
76967;DHT22;65904;52.278;20.972;2023-04-24T08:19:58;20.00;90.90
76967;DHT22;65904;52.278;20.972;2023-04-24T08:22:47;19.90;91.50
76967;DHT22;65904;52.278;20.972;2023-04-24T08:25:33;19.90;90.90
76967;DHT22;65904;52.278;20.972;2023-04-24T08:28:20;20.00;91.50
76967;DHT22;65904;52.278;20.972;2023-04-24T08:31:06;20.00;91.70
76967;DHT22;65904;52.278;20.972;2023-04-24T08:33:52;19.90;91.50
76967;DHT22;65904;52.278;20.972;2023-04-24T08:36:38;20.00;91.80
76967;DHT22;65904;52.278;20.972;2023-04-24T08:39:26;19.80;90.80
76967;DHT22;65904;52.278;20.972;2023-04-24T08:42:13;19.50;91.30
76967;DHT22;65904;52.278;20.972;2023-04-24T08:45:00;19.70;92.30
76967;DHT22;65904;52.278;20.972;2023-04-24T08:47:47;20.00;92.40
76967;DHT22;65904;52.278;20.972;2023-04-24T08:50:34;20.30;91.10
76967;DHT22;65904;52.278;20.972;2023-04-24T08:53:21;20.40;90.10
76967;DHT22;65904;52.278;20.972;2023-04-24T08:56:09;20.60;89.30
76967;DHT22;65904;52.278;20.972;2023-04-24T08:58:57;20.50;88.20
76967;DHT22;65904;52.278;20.972;2023-04-24T09:01:45;20.60;87.90
76967;DHT22;65904;52.278;20.972;2023-04-24T09:04:33;21.50;86.60
76967;DHT22;65904;52.278;20.972;2023-04-24T09:07:22;22.00;81.10
76967;DHT22;65904;52.278;20.972;2023-04-24T09:10:11;22.30;81.80
76967;DHT22;65904;52.278;20.972;2023-04-24T09:12:59;22.60;79.10
76967;DHT22;65904;52.278;20.972;2023-04-24T09:15:46;23.30;73.60
76967;DHT22;65904;52.278;20.972;2023-04-24T09:18:33;23.60;68.70
76967;DHT22;65904;52.278;20.972;2023-04-24T09:21:21;24.20;67.30
76967;DHT22;65904;52.278;20.972;2023-04-24T09:24:14;25.00;68.40
76967;DHT22;65904;52.278;20.972;2023-04-24T09:27:02;26.00;58.70
76967;DHT22;65904;52.278;20.972;2023-04-24T09:29:57;26.70;55.10
76967;DHT22;65904;52.278;20.972;2023-04-24T09:32:44;27.90;53.80
76967;DHT22;65904;52.278;20.972;2023-04-24T09:35:32;28.40;47.80
76967;DHT22;65904;52.278;20.972;2023-04-24T09:38:20;28.80;44.80
76967;DHT22;65904;52.278;20.972;2023-04-24T09:41:16;27.90;44.50
76967;DHT22;65904;52.278;20.972;2023-04-24T09:44:12;27.10;45.90
76967;DHT22;65904;52.278;20.972;2023-04-24T09:46:59;26.40;48.10
76967;DHT22;65904;52.278;20.972;2023-04-24T09:49:46;25.70;47.80
76967;DHT22;65904;52.278;20.972;2023-04-24T09:52:31;25.30;47.40
76967;DHT22;65904;52.278;20.972;2023-04-24T09:55:19;25.00;48.80
76967;DHT22;65904;52.278;20.972;2023-04-24T09:58:08;25.20;52.90
76967;DHT22;65904;52.278;20.972;2023-04-24T10:00:54;25.60;48.50
76967;DHT22;65904;52.278;20.972;2023-04-24T10:03:43;26.00;50.40
76967;DHT22;65904;52.278;20.972;2023-04-24T10:06:34;26.60;48.00
76967;DHT22;65904;52.278;20.972;2023-04-24T10:09:22;26.60;44.90
76967;DHT22;65904;52.278;20.972;2023-04-24T10:12:08;27.30;44.40
76967;DHT22;65904;52.278;20.972;2023-04-24T10:14:55;27.60;42.40
76967;DHT22;65904;52.278;20.972;2023-04-24T10:17:42;28.20;43.60
76967;DHT22;65904;52.278;20.972;2023-04-24T10:20:31;28.70;43.30
76967;DHT22;65904;52.278;20.972;2023-04-24T10:23:18;29.50;40.30
76967;DHT22;65904;52.278;20.972;2023-04-24T10:26:05;30.00;40.00
76967;DHT22;65904;52.278;20.972;2023-04-24T10:28:52;30.00;38.80
76967;DHT22;65904;52.278;20.972;2023-04-24T10:31:40;30.70;37.50
76967;DHT22;65904;52.278;20.972;2023-04-24T10:34:26;30.90;37.60
76967;DHT22;65904;52.278;20.972;2023-04-24T10:37:15;31.20;35.70
76967;DHT22;65904;52.278;20.972;2023-04-24T10:40:02;32.10;36.40
76967;DHT22;65904;52.278;20.972;2023-04-24T10:42:51;32.80;35.60
76967;DHT22;65904;52.278;20.972;2023-04-24T10:45:37;33.00;36.00
76967;DHT22;65904;52.278;20.972;2023-04-24T10:48:26;34.00;35.10
76967;DHT22;65904;52.278;20.972;2023-04-24T10:51:14;34.70;34.00
76967;DHT22;65904;52.278;20.972;2023-04-24T10:54:22;34.30;34.10
76967;DHT22;65904;52.278;20.972;2023-04-24T10:57:26;35.30;35.00
76967;DHT22;65904;52.278;20.972;2023-04-24T11:00:21;35.30;33.10
76967;DHT22;65904;52.278;20.972;2023-04-24T11:03:22;35.70;32.60
76967;DHT22;65904;52.278;20.972;2023-04-24T11:06:09;35.30;30.30
76967;DHT22;65904;52.278;20.972;2023-04-24T11:09:03;33.30;32.60
76967;DHT22;65904;52.278;20.972;2023-04-24T11:11:50;32.00;32.40
76967;DHT22;65904;52.278;20.972;2023-04-24T11:15:00;32.90;33.00
76967;DHT22;65904;52.278;20.972;2023-04-24T11:17:47;33.30;34.40
76967;DHT22;65904;52.278;20.972;2023-04-24T11:20:33;34.10;32.80
76967;DHT22;65904;52.278;20.972;2023-04-24T11:23:19;34.60;31.00
76967;DHT22;65904;52.278;20.972;2023-04-24T11:26:17;34.60;29.70
76967;DHT22;65904;52.278;20.972;2023-04-24T11:29:06;35.10;29.60
76967;DHT22;65904;52.278;20.972;2023-04-24T11:31:53;34.70;28.60
76967;DHT22;65904;52.278;20.972;2023-04-24T11:34:39;33.90;29.00
76967;DHT22;65904;52.278;20.972;2023-04-24T11:37:27;34.40;28.90
76967;DHT22;65904;52.278;20.972;2023-04-24T11:40:15;34.20;29.20
76967;DHT22;65904;52.278;20.972;2023-04-24T11:43:04;34.80;30.00
76967;DHT22;65904;52.278;20.972;2023-04-24T11:45:50;36.40;30.20
76967;DHT22;65904;52.278;20.972;2023-04-24T11:48:36;33.80;28.50
76967;DHT22;65904;52.278;20.972;2023-04-24T11:51:25;34.50;29.00
76967;DHT22;65904;52.278;20.972;2023-04-24T11:54:11;35.60;28.30
76967;DHT22;65904;52.278;20.972;2023-04-24T11:56:58;34.50;26.40
76967;DHT22;65904;52.278;20.972;2023-04-24T11:59:45;34.70;29.50
76967;DHT22;65904;52.278;20.972;2023-04-24T12:02:32;35.30;29.00
76967;DHT22;65904;52.278;20.972;2023-04-24T12:05:21;36.30;28.40
76967;DHT22;65904;52.278;20.972;2023-04-24T12:08:07;36.20;26.40
76967;DHT22;65904;52.278;20.972;2023-04-24T12:10:54;35.50;25.90
76967;DHT22;65904;52.278;20.972;2023-04-24T12:13:40;34.00;27.70
76967;DHT22;65904;52.278;20.972;2023-04-24T12:16:28;32.30;27.50
76967;DHT22;65904;52.278;20.972;2023-04-24T12:19:18;32.00;28.80
76967;DHT22;65904;52.278;20.972;2023-04-24T12:22:06;33.70;28.10
76967;DHT22;65904;52.278;20.972;2023-04-24T12:24:57;34.50;28.70
76967;DHT22;65904;52.278;20.972;2023-04-24T12:27:44;34.50;27.20
76967;DHT22;65904;52.278;20.972;2023-04-24T12:30:32;35.00;28.20
76967;DHT22;65904;52.278;20.972;2023-04-24T12:33:21;35.20;27.10
76967;DHT22;65904;52.278;20.972;2023-04-24T12:36:10;34.70;26.80
76967;DHT22;65904;52.278;20.972;2023-04-24T12:38:57;31.90;27.10
76967;DHT22;65904;52.278;20.972;2023-04-24T12:41:53;32.80;27.90
76967;DHT22;65904;52.278;20.972;2023-04-24T12:44:40;32.70;28.60
76967;DHT22;65904;52.278;20.972;2023-04-24T12:47:27;32.20;27.70
76967;DHT22;65904;52.278;20.972;2023-04-24T12:50:16;31.50;28.80
76967;DHT22;65904;52.278;20.972;2023-04-24T12:53:02;31.10;30.00
76967;DHT22;65904;52.278;20.972;2023-04-24T12:55:48;28.70;31.00
76967;DHT22;65904;52.278;20.972;2023-04-24T12:58:37;25.20;37.00
76967;DHT22;65904;52.278;20.972;2023-04-24T13:01:23;24.30;41.50
76967;DHT22;65904;52.278;20.972;2023-04-24T13:04:09;24.80;41.70
76967;DHT22;65904;52.278;20.972;2023-04-24T13:06:57;24.70;41.60
76967;DHT22;65904;52.278;20.972;2023-04-24T13:09:44;25.00;42.30
76967;DHT22;65904;52.278;20.972;2023-04-24T13:12:30;26.30;41.30
76967;DHT22;65904;52.278;20.972;2023-04-24T13:15:16;26.30;40.10
76967;DHT22;65904;52.278;20.972;2023-04-24T13:18:02;26.70;39.60
76967;DHT22;65904;52.278;20.972;2023-04-24T13:20:48;26.50;39.20
76967;DHT22;65904;52.278;20.972;2023-04-24T13:23:35;25.60;40.20
76967;DHT22;65904;52.278;20.972;2023-04-24T13:26:22;25.80;40.00
76967;DHT22;65904;52.278;20.972;2023-04-24T13:29:09;26.00;40.50
76967;DHT22;65904;52.278;20.972;2023-04-24T13:31:55;25.70;40.30
76967;DHT22;65904;52.278;20.972;2023-04-24T13:34:42;26.70;38.80
76967;DHT22;65904;52.278;20.972;2023-04-24T13:37:28;26.30;39.10
76967;DHT22;65904;52.278;20.972;2023-04-24T13:40:16;26.70;38.50
76967;DHT22;65904;52.278;20.972;2023-04-24T13:43:02;27.90;37.60
76967;DHT22;65904;52.278;20.972;2023-04-24T13:45:48;28.20;36.40
76967;DHT22;65904;52.278;20.972;2023-04-24T13:48:34;27.60;36.20
76967;DHT22;65904;52.278;20.972;2023-04-24T13:51:21;25.70;37.70
76967;DHT22;65904;52.278;20.972;2023-04-24T13:54:07;25.20;38.40
76967;DHT22;65904;52.278;20.972;2023-04-24T13:56:57;25.10;38.60
76967;DHT22;65904;52.278;20.972;2023-04-24T13:59:43;23.40;40.20
76967;DHT22;65904;52.278;20.972;2023-04-24T14:02:30;22.50;42.10
76967;DHT22;65904;52.278;20.972;2023-04-24T14:05:16;22.20;43.00
76967;DHT22;65904;52.278;20.972;2023-04-24T14:08:03;23.60;42.20
76967;DHT22;65904;52.278;20.972;2023-04-24T14:10:50;25.50;39.50
76967;DHT22;65904;52.278;20.972;2023-04-24T14:13:38;27.10;37.50
76967;DHT22;65904;52.278;20.972;2023-04-24T14:16:24;28.60;35.60
76967;DHT22;65904;52.278;20.972;2023-04-24T14:19:10;29.60;33.20
76967;DHT22;65904;52.278;20.972;2023-04-24T14:21:56;29.80;31.70
76967;DHT22;65904;52.278;20.972;2023-04-24T14:24:43;30.10;32.70
76967;DHT22;65904;52.278;20.972;2023-04-24T14:27:29;30.70;31.10
76967;DHT22;65904;52.278;20.972;2023-04-24T14:30:17;31.10;29.80
76967;DHT22;65904;52.278;20.972;2023-04-24T14:33:03;28.40;30.70
76967;DHT22;65904;52.278;20.972;2023-04-24T14:35:49;27.20;30.90
76967;DHT22;65904;52.278;20.972;2023-04-24T14:38:35;26.60;33.80
76967;DHT22;65904;52.278;20.972;2023-04-24T14:41:21;25.40;33.40
76967;DHT22;65904;52.278;20.972;2023-04-24T14:44:08;25.10;35.30
76967;DHT22;65904;52.278;20.972;2023-04-24T14:46:55;25.20;34.90
76967;DHT22;65904;52.278;20.972;2023-04-24T14:49:41;25.90;34.60
76967;DHT22;65904;52.278;20.972;2023-04-24T14:52:28;25.90;34.10
76967;DHT22;65904;52.278;20.972;2023-04-24T14:55:14;26.60;34.00
76967;DHT22;65904;52.278;20.972;2023-04-24T14:58:00;26.60;34.40
76967;DHT22;65904;52.278;20.972;2023-04-24T15:00:47;26.20;33.70
76967;DHT22;65904;52.278;20.972;2023-04-24T15:03:36;25.70;35.20
76967;DHT22;65904;52.278;20.972;2023-04-24T15:06:22;24.90;36.10
76967;DHT22;65904;52.278;20.972;2023-04-24T15:09:08;24.40;35.90
76967;DHT22;65904;52.278;20.972;2023-04-24T15:11:54;24.00;36.20
76967;DHT22;65904;52.278;20.972;2023-04-24T15:14:41;23.70;36.70
76967;DHT22;65904;52.278;20.972;2023-04-24T15:17:27;23.40;37.40
76967;DHT22;65904;52.278;20.972;2023-04-24T15:20:15;23.20;38.20
76967;DHT22;65904;52.278;20.972;2023-04-24T15:23:01;23.10;38.70
76967;DHT22;65904;52.278;20.972;2023-04-24T15:25:47;23.10;38.90
76967;DHT22;65904;52.278;20.972;2023-04-24T15:28:33;23.70;38.00
76967;DHT22;65904;52.278;20.972;2023-04-24T15:31:19;24.10;37.60
76967;DHT22;65904;52.278;20.972;2023-04-24T15:34:07;25.70;36.40
76967;DHT22;65904;52.278;20.972;2023-04-24T15:36:55;27.50;34.40
76967;DHT22;65904;52.278;20.972;2023-04-24T15:39:41;29.30;33.10
76967;DHT22;65904;52.278;20.972;2023-04-24T15:42:30;30.30;30.90
76967;DHT22;65904;52.278;20.972;2023-04-24T15:45:16;30.20;30.80
76967;DHT22;65904;52.278;20.972;2023-04-24T15:48:03;31.30;30.20
76967;DHT22;65904;52.278;20.972;2023-04-24T15:50:49;32.00;29.80
76967;DHT22;65904;52.278;20.972;2023-04-24T15:53:36;32.10;29.90
76967;DHT22;65904;52.278;20.972;2023-04-24T15:56:22;31.60;28.90
76967;DHT22;65904;52.278;20.972;2023-04-24T15:59:08;31.80;28.90
76967;DHT22;65904;52.278;20.972;2023-04-24T16:01:55;31.80;30.30
76967;DHT22;65904;52.278;20.972;2023-04-24T16:04:41;31.80;29.40
76967;DHT22;65904;52.278;20.972;2023-04-24T16:07:27;31.50;29.80
76967;DHT22;65904;52.278;20.972;2023-04-24T16:10:14;31.00;29.90
76967;DHT22;65904;52.278;20.972;2023-04-24T16:13:00;30.60;29.20
76967;DHT22;65904;52.278;20.972;2023-04-24T16:15:48;29.90;29.20
76967;DHT22;65904;52.278;20.972;2023-04-24T16:18:34;28.70;29.90
76967;DHT22;65904;52.278;20.972;2023-04-24T16:21:20;28.40;30.10
76967;DHT22;65904;52.278;20.972;2023-04-24T16:24:06;28.00;30.40
76967;DHT22;65904;52.278;20.972;2023-04-24T16:26:55;28.10;33.20
76967;DHT22;65904;52.278;20.972;2023-04-24T16:29:41;28.30;32.80
76967;DHT22;65904;52.278;20.972;2023-04-24T16:32:28;28.30;32.90
76967;DHT22;65904;52.278;20.972;2023-04-24T16:35:14;28.30;33.50
76967;DHT22;65904;52.278;20.972;2023-04-24T16:38:00;28.30;33.40
76967;DHT22;65904;52.278;20.972;2023-04-24T16:40:47;28.40;33.60
76967;DHT22;65904;52.278;20.972;2023-04-24T16:43:34;28.20;33.60
76967;DHT22;65904;52.278;20.972;2023-04-24T16:46:20;27.40;34.40
76967;DHT22;65904;52.278;20.972;2023-04-24T16:49:07;26.60;36.10
76967;DHT22;65904;52.278;20.972;2023-04-24T16:51:53;25.90;36.30
76967;DHT22;65904;52.278;20.972;2023-04-24T16:54:39;25.20;37.80
76967;DHT22;65904;52.278;20.972;2023-04-24T16:57:26;24.40;37.90
76967;DHT22;65904;52.278;20.972;2023-04-24T17:00:14;23.70;38.30
76967;DHT22;65904;52.278;20.972;2023-04-24T17:03:00;23.20;39.70
76967;DHT22;65904;52.278;20.972;2023-04-24T17:05:47;22.90;39.80
76967;DHT22;65904;52.278;20.972;2023-04-24T17:08:33;22.50;40.10
76967;DHT22;65904;52.278;20.972;2023-04-24T17:11:19;22.10;41.60
76967;DHT22;65904;52.278;20.972;2023-04-24T17:14:06;21.70;41.70
76967;DHT22;65904;52.278;20.972;2023-04-24T17:16:54;21.40;42.80
76967;DHT22;65904;52.278;20.972;2023-04-24T17:19:40;21.10;43.10
76967;DHT22;65904;52.278;20.972;2023-04-24T17:22:26;20.80;43.70